sensor_id;sensor_type;location;lat;lon;timestamp;temperature;humidity
81867;DHT22;71318;-36.550;-64.300;2023-09-08T00:02:25;9.80;76.10
81867;DHT22;71318;-36.550;-64.300;2023-09-08T00:04:52;10.10;74.30
81867;DHT22;71318;-36.550;-64.300;2023-09-08T00:07:18;10.10;74.80
81867;DHT22;71318;-36.550;-64.300;2023-09-08T00:09:45;10.00;75.40
81867;DHT22;71318;-36.550;-64.300;2023-09-08T00:12:11;9.60;77.00
81867;DHT22;71318;-36.550;-64.300;2023-09-08T00:14:38;9.20;79.20
81867;DHT22;71318;-36.550;-64.300;2023-09-08T00:17:04;9.20;79.10
81867;DHT22;71318;-36.550;-64.300;2023-09-08T00:19:31;9.20;78.90
81867;DHT22;71318;-36.550;-64.300;2023-09-08T00:21:57;8.70;79.60
81867;DHT22;71318;-36.550;-64.300;2023-09-08T00:24:24;8.60;81.30
81867;DHT22;71318;-36.550;-64.300;2023-09-08T00:26:50;8.40;82.20
81867;DHT22;71318;-36.550;-64.300;2023-09-08T00:29:17;8.30;83.20
81867;DHT22;71318;-36.550;-64.300;2023-09-08T00:31:43;8.40;83.10
81867;DHT22;71318;-36.550;-64.300;2023-09-08T00:34:10;8.20;83.90
81867;DHT22;71318;-36.550;-64.300;2023-09-08T00:36:36;7.80;84.20
81867;DHT22;71318;-36.550;-64.300;2023-09-08T00:39:02;7.60;85.10
81867;DHT22;71318;-36.550;-64.300;2023-09-08T00:41:29;7.50;85.30
81867;DHT22;71318;-36.550;-64.300;2023-09-08T00:43:55;7.40;85.60
81867;DHT22;71318;-36.550;-64.300;2023-09-08T00:46:22;7.40;86.50
81867;DHT22;71318;-36.550;-64.300;2023-09-08T00:48:49;7.50;86.00
81867;DHT22;71318;-36.550;-64.300;2023-09-08T00:51:16;7.60;85.20
81867;DHT22;71318;-36.550;-64.300;2023-09-08T00:53:44;7.40;85.00
81867;DHT22;71318;-36.550;-64.300;2023-09-08T00:56:11;7.50;86.30
81867;DHT22;71318;-36.550;-64.300;2023-09-08T00:58:38;7.50;85.90
81867;DHT22;71318;-36.550;-64.300;2023-09-08T01:01:04;7.50;85.40
81867;DHT22;71318;-36.550;-64.300;2023-09-08T01:03:31;7.10;85.90
81867;DHT22;71318;-36.550;-64.300;2023-09-08T01:05:58;7.10;87.00
81867;DHT22;71318;-36.550;-64.300;2023-09-08T01:08:25;7.10;87.00
81867;DHT22;71318;-36.550;-64.300;2023-09-08T01:10:52;7.10;86.70
81867;DHT22;71318;-36.550;-64.300;2023-09-08T01:13:18;7.00;86.80
81867;DHT22;71318;-36.550;-64.300;2023-09-08T01:15:45;6.90;88.00
81867;DHT22;71318;-36.550;-64.300;2023-09-08T01:18:11;7.00;88.50
81867;DHT22;71318;-36.550;-64.300;2023-09-08T01:23:30;6.80;87.30
81867;DHT22;71318;-36.550;-64.300;2023-09-08T01:26:04;6.80;87.50
81867;DHT22;71318;-36.550;-64.300;2023-09-08T01:28:33;6.80;87.40
81867;DHT22;71318;-36.550;-64.300;2023-09-08T01:31:00;7.20;86.60
81867;DHT22;71318;-36.550;-64.300;2023-09-08T01:33:27;7.50;84.90
81867;DHT22;71318;-36.550;-64.300;2023-09-08T01:35:53;7.60;84.30
81867;DHT22;71318;-36.550;-64.300;2023-09-08T01:38:21;7.50;84.80
81867;DHT22;71318;-36.550;-64.300;2023-09-08T01:40:47;7.30;85.50
81867;DHT22;71318;-36.550;-64.300;2023-09-08T01:43:14;7.10;86.30
81867;DHT22;71318;-36.550;-64.300;2023-09-08T01:45:41;6.90;86.70
81867;DHT22;71318;-36.550;-64.300;2023-09-08T01:48:08;7.00;86.10
81867;DHT22;71318;-36.550;-64.300;2023-09-08T01:50:34;7.20;85.40
81867;DHT22;71318;-36.550;-64.300;2023-09-08T01:53:01;7.40;84.80
81867;DHT22;71318;-36.550;-64.300;2023-09-08T01:55:27;7.50;83.70
81867;DHT22;71318;-36.550;-64.300;2023-09-08T01:57:56;7.30;83.50
81867;DHT22;71318;-36.550;-64.300;2023-09-08T02:00:23;7.10;84.50
81867;DHT22;71318;-36.550;-64.300;2023-09-08T02:02:49;7.00;85.10
81867;DHT22;71318;-36.550;-64.300;2023-09-08T02:05:16;6.90;85.70
81867;DHT22;71318;-36.550;-64.300;2023-09-08T02:07:42;6.80;86.00
81867;DHT22;71318;-36.550;-64.300;2023-09-08T02:10:12;6.90;85.80
81867;DHT22;71318;-36.550;-64.300;2023-09-08T02:12:38;6.90;85.60
81867;DHT22;71318;-36.550;-64.300;2023-09-08T02:15:05;7.00;85.70
81867;DHT22;71318;-36.550;-64.300;2023-09-08T02:17:31;7.20;84.70
81867;DHT22;71318;-36.550;-64.300;2023-09-08T02:19:58;7.20;83.10
81867;DHT22;71318;-36.550;-64.300;2023-09-08T02:22:24;7.10;82.80
81867;DHT22;71318;-36.550;-64.300;2023-09-08T02:24:51;7.10;82.90
81867;DHT22;71318;-36.550;-64.300;2023-09-08T02:27:18;7.10;82.90
81867;DHT22;71318;-36.550;-64.300;2023-09-08T02:29:45;6.60;84.70
81867;DHT22;71318;-36.550;-64.300;2023-09-08T02:32:11;6.20;86.90
81867;DHT22;71318;-36.550;-64.300;2023-09-08T02:34:40;6.10;87.80
81867;DHT22;71318;-36.550;-64.300;2023-09-08T02:37:08;6.20;87.00
81867;DHT22;71318;-36.550;-64.300;2023-09-08T02:39:34;6.10;87.70
81867;DHT22;71318;-36.550;-64.300;2023-09-08T02:42:01;6.30;87.70
81867;DHT22;71318;-36.550;-64.300;2023-09-08T02:44:27;6.40;86.30
81867;DHT22;71318;-36.550;-64.300;2023-09-08T02:46:55;5.90;87.70
81867;DHT22;71318;-36.550;-64.300;2023-09-08T02:49:22;6.10;88.00
81867;DHT22;71318;-36.550;-64.300;2023-09-08T02:51:48;6.30;86.70
81867;DHT22;71318;-36.550;-64.300;2023-09-08T02:54:14;6.50;85.90
81867;DHT22;71318;-36.550;-64.300;2023-09-08T02:56:41;6.60;85.80
81867;DHT22;71318;-36.550;-64.300;2023-09-08T02:59:07;6.90;84.90
81867;DHT22;71318;-36.550;-64.300;2023-09-08T03:01:34;7.30;83.90
81867;DHT22;71318;-36.550;-64.300;2023-09-08T03:04:03;7.40;82.60
81867;DHT22;71318;-36.550;-64.300;2023-09-08T03:06:30;7.30;82.70
81867;DHT22;71318;-36.550;-64.300;2023-09-08T03:08:58;7.20;82.90
81867;DHT22;71318;-36.550;-64.300;2023-09-08T03:11:24;7.00;83.40
81867;DHT22;71318;-36.550;-64.300;2023-09-08T03:13:51;6.90;84.10
81867;DHT22;71318;-36.550;-64.300;2023-09-08T03:16:17;7.00;83.60
81867;DHT22;71318;-36.550;-64.300;2023-09-08T03:18:44;6.80;83.20
81867;DHT22;71318;-36.550;-64.300;2023-09-08T03:21:13;6.70;83.90
81867;DHT22;71318;-36.550;-64.300;2023-09-08T03:23:40;6.60;83.70
81867;DHT22;71318;-36.550;-64.300;2023-09-08T03:26:07;6.50;85.00
81867;DHT22;71318;-36.550;-64.300;2023-09-08T03:28:34;6.50;85.20
81867;DHT22;71318;-36.550;-64.300;2023-09-08T03:31:01;6.40;85.10
81867;DHT22;71318;-36.550;-64.300;2023-09-08T03:33:28;6.30;84.70
81867;DHT22;71318;-36.550;-64.300;2023-09-08T03:35:54;6.00;86.40
81867;DHT22;71318;-36.550;-64.300;2023-09-08T03:38:23;5.60;85.90
81867;DHT22;71318;-36.550;-64.300;2023-09-08T03:40:50;5.60;87.60
81867;DHT22;71318;-36.550;-64.300;2023-09-08T03:43:16;5.60;87.90
81867;DHT22;71318;-36.550;-64.300;2023-09-08T03:45:42;5.40;87.50
81867;DHT22;71318;-36.550;-64.300;2023-09-08T03:48:09;5.20;88.00
81867;DHT22;71318;-36.550;-64.300;2023-09-08T03:50:39;5.00;88.30
81867;DHT22;71318;-36.550;-64.300;2023-09-08T03:53:05;4.80;88.50
81867;DHT22;71318;-36.550;-64.300;2023-09-08T03:55:32;5.30;91.00
81867;DHT22;71318;-36.550;-64.300;2023-09-08T03:58:01;6.00;88.00
81867;DHT22;71318;-36.550;-64.300;2023-09-08T04:00:27;6.50;85.90
81867;DHT22;71318;-36.550;-64.300;2023-09-08T04:02:54;7.30;83.20
81867;DHT22;71318;-36.550;-64.300;2023-09-08T04:05:20;7.70;81.30
81867;DHT22;71318;-36.550;-64.300;2023-09-08T04:07:47;7.90;80.10
81867;DHT22;71318;-36.550;-64.300;2023-09-08T04:10:13;7.40;79.70
81867;DHT22;71318;-36.550;-64.300;2023-09-08T04:12:40;6.50;82.90
81867;DHT22;71318;-36.550;-64.300;2023-09-08T04:15:07;5.90;84.30
81867;DHT22;71318;-36.550;-64.300;2023-09-08T04:17:33;5.40;87.00
81867;DHT22;71318;-36.550;-64.300;2023-09-08T04:20:02;5.20;88.40
81867;DHT22;71318;-36.550;-64.300;2023-09-08T04:22:31;5.20;89.50
81867;DHT22;71318;-36.550;-64.300;2023-09-08T04:24:57;5.60;88.20
81867;DHT22;71318;-36.550;-64.300;2023-09-08T04:27:27;6.20;85.70
81867;DHT22;71318;-36.550;-64.300;2023-09-08T04:29:53;6.30;85.00
81867;DHT22;71318;-36.550;-64.300;2023-09-08T04:32:20;6.60;84.30
81867;DHT22;71318;-36.550;-64.300;2023-09-08T04:34:46;6.90;82.40
81867;DHT22;71318;-36.550;-64.300;2023-09-08T04:37:16;6.80;83.60
81867;DHT22;71318;-36.550;-64.300;2023-09-08T04:39:42;7.00;83.10
81867;DHT22;71318;-36.550;-64.300;2023-09-08T04:42:09;7.00;82.70
81867;DHT22;71318;-36.550;-64.300;2023-09-08T04:44:36;7.10;82.50
81867;DHT22;71318;-36.550;-64.300;2023-09-08T04:47:02;7.10;82.60
81867;DHT22;71318;-36.550;-64.300;2023-09-08T04:49:29;7.20;82.40
81867;DHT22;71318;-36.550;-64.300;2023-09-08T04:51:56;7.40;81.40
81867;DHT22;71318;-36.550;-64.300;2023-09-08T04:54:22;7.60;80.90
81867;DHT22;71318;-36.550;-64.300;2023-09-08T04:56:52;7.50;81.00
81867;DHT22;71318;-36.550;-64.300;2023-09-08T04:59:19;7.50;80.90
81867;DHT22;71318;-36.550;-64.300;2023-09-08T05:01:46;7.40;80.90
81867;DHT22;71318;-36.550;-64.300;2023-09-08T05:04:12;6.90;82.20
81867;DHT22;71318;-36.550;-64.300;2023-09-08T05:06:39;6.80;82.70
81867;DHT22;71318;-36.550;-64.300;2023-09-08T05:09:05;6.50;83.90
81867;DHT22;71318;-36.550;-64.300;2023-09-08T05:11:32;6.40;84.30
81867;DHT22;71318;-36.550;-64.300;2023-09-08T05:13:59;6.50;84.30
81867;DHT22;71318;-36.550;-64.300;2023-09-08T05:16:25;6.40;84.10
81867;DHT22;71318;-36.550;-64.300;2023-09-08T05:19:03;6.40;84.00
81867;DHT22;71318;-36.550;-64.300;2023-09-08T05:21:30;6.40;84.30
81867;DHT22;71318;-36.550;-64.300;2023-09-08T05:23:56;6.70;83.10
81867;DHT22;71318;-36.550;-64.300;2023-09-08T05:26:23;6.60;83.50
81867;DHT22;71318;-36.550;-64.300;2023-09-08T05:28:49;6.70;83.00
81867;DHT22;71318;-36.550;-64.300;2023-09-08T05:31:16;6.80;82.20
81867;DHT22;71318;-36.550;-64.300;2023-09-08T05:33:42;6.90;81.30
81867;DHT22;71318;-36.550;-64.300;2023-09-08T05:36:09;6.70;81.90
81867;DHT22;71318;-36.550;-64.300;2023-09-08T05:38:35;6.60;82.70
81867;DHT22;71318;-36.550;-64.300;2023-09-08T05:41:02;6.70;82.60
81867;DHT22;71318;-36.550;-64.300;2023-09-08T05:43:28;6.70;82.10
81867;DHT22;71318;-36.550;-64.300;2023-09-08T05:45:54;6.00;84.60
81867;DHT22;71318;-36.550;-64.300;2023-09-08T05:48:21;6.00;85.50
81867;DHT22;71318;-36.550;-64.300;2023-09-08T05:50:47;6.00;85.50
81867;DHT22;71318;-36.550;-64.300;2023-09-08T05:53:14;5.80;85.60
81867;DHT22;71318;-36.550;-64.300;2023-09-08T05:55:40;5.40;86.80
81867;DHT22;71318;-36.550;-64.300;2023-09-08T05:58:07;5.30;88.00
81867;DHT22;71318;-36.550;-64.300;2023-09-08T06:00:33;5.50;87.80
81867;DHT22;71318;-36.550;-64.300;2023-09-08T06:02:59;5.50;87.50
81867;DHT22;71318;-36.550;-64.300;2023-09-08T06:05:26;5.60;86.80
81867;DHT22;71318;-36.550;-64.300;2023-09-08T06:07:52;5.50;86.90
81867;DHT22;71318;-36.550;-64.300;2023-09-08T06:10:19;5.30;87.70
81867;DHT22;71318;-36.550;-64.300;2023-09-08T06:12:45;5.20;88.30
81867;DHT22;71318;-36.550;-64.300;2023-09-08T06:15:12;5.20;88.50
81867;DHT22;71318;-36.550;-64.300;2023-09-08T06:17:38;5.20;88.50
81867;DHT22;71318;-36.550;-64.300;2023-09-08T06:20:04;4.90;87.80
81867;DHT22;71318;-36.550;-64.300;2023-09-08T06:22:32;4.70;88.30
81867;DHT22;71318;-36.550;-64.300;2023-09-08T06:24:58;4.30;90.20
81867;DHT22;71318;-36.550;-64.300;2023-09-08T06:27:24;4.60;90.80
81867;DHT22;71318;-36.550;-64.300;2023-09-08T06:29:51;5.00;89.70
81867;DHT22;71318;-36.550;-64.300;2023-09-08T06:32:17;5.00;89.40
81867;DHT22;71318;-36.550;-64.300;2023-09-08T06:34:44;4.80;90.10
81867;DHT22;71318;-36.550;-64.300;2023-09-08T06:37:10;4.70;90.00
81867;DHT22;71318;-36.550;-64.300;2023-09-08T06:39:37;4.60;90.40
81867;DHT22;71318;-36.550;-64.300;2023-09-08T06:42:03;4.50;91.20
81867;DHT22;71318;-36.550;-64.300;2023-09-08T06:44:29;4.60;90.60
81867;DHT22;71318;-36.550;-64.300;2023-09-08T06:46:56;5.00;90.40
81867;DHT22;71318;-36.550;-64.300;2023-09-08T06:49:22;5.60;88.10
81867;DHT22;71318;-36.550;-64.300;2023-09-08T06:51:49;5.70;87.20
81867;DHT22;71318;-36.550;-64.300;2023-09-08T06:54:15;5.90;86.50
81867;DHT22;71318;-36.550;-64.300;2023-09-08T06:56:43;5.80;86.50
81867;DHT22;71318;-36.550;-64.300;2023-09-08T06:59:09;5.80;86.60
81867;DHT22;71318;-36.550;-64.300;2023-09-08T07:01:36;5.90;86.00
81867;DHT22;71318;-36.550;-64.300;2023-09-08T07:04:02;5.90;86.20
81867;DHT22;71318;-36.550;-64.300;2023-09-08T07:06:29;5.80;86.00
81867;DHT22;71318;-36.550;-64.300;2023-09-08T07:08:55;5.70;86.50
81867;DHT22;71318;-36.550;-64.300;2023-09-08T07:11:21;5.70;86.70
81867;DHT22;71318;-36.550;-64.300;2023-09-08T07:13:48;5.80;86.50
81867;DHT22;71318;-36.550;-64.300;2023-09-08T07:16:14;5.80;86.30
81867;DHT22;71318;-36.550;-64.300;2023-09-08T07:18:41;5.80;86.60
81867;DHT22;71318;-36.550;-64.300;2023-09-08T07:21:10;5.80;86.70
81867;DHT22;71318;-36.550;-64.300;2023-09-08T07:23:36;5.90;86.30
81867;DHT22;71318;-36.550;-64.300;2023-09-08T07:26:04;6.00;85.90
81867;DHT22;71318;-36.550;-64.300;2023-09-08T07:28:30;6.00;85.90
81867;DHT22;71318;-36.550;-64.300;2023-09-08T07:31:06;6.00;86.20
81867;DHT22;71318;-36.550;-64.300;2023-09-08T07:33:34;6.10;86.10
81867;DHT22;71318;-36.550;-64.300;2023-09-08T07:36:04;6.20;85.80
81867;DHT22;71318;-36.550;-64.300;2023-09-08T07:38:31;6.20;86.00
81867;DHT22;71318;-36.550;-64.300;2023-09-08T07:40:57;6.30;85.40
81867;DHT22;71318;-36.550;-64.300;2023-09-08T07:43:26;6.50;84.60
81867;DHT22;71318;-36.550;-64.300;2023-09-08T07:45:53;6.60;84.20
81867;DHT22;71318;-36.550;-64.300;2023-09-08T07:48:19;6.60;83.80
81867;DHT22;71318;-36.550;-64.300;2023-09-08T07:50:46;6.80;83.40
81867;DHT22;71318;-36.550;-64.300;2023-09-08T07:53:12;6.70;83.80
81867;DHT22;71318;-36.550;-64.300;2023-09-08T07:55:38;6.60;84.30
81867;DHT22;71318;-36.550;-64.300;2023-09-08T07:58:05;6.50;84.30
81867;DHT22;71318;-36.550;-64.300;2023-09-08T08:00:31;6.50;84.80
81867;DHT22;71318;-36.550;-64.300;2023-09-08T08:02:58;6.50;84.90
81867;DHT22;71318;-36.550;-64.300;2023-09-08T08:05:25;6.50;84.70
81867;DHT22;71318;-36.550;-64.300;2023-09-08T08:07:51;6.50;85.30
81867;DHT22;71318;-36.550;-64.300;2023-09-08T08:10:18;6.50;85.20
81867;DHT22;71318;-36.550;-64.300;2023-09-08T08:12:45;6.40;85.30
81867;DHT22;71318;-36.550;-64.300;2023-09-08T08:15:11;6.60;84.20
81867;DHT22;71318;-36.550;-64.300;2023-09-08T08:17:38;6.70;83.40
81867;DHT22;71318;-36.550;-64.300;2023-09-08T08:20:05;6.80;83.80
81867;DHT22;71318;-36.550;-64.300;2023-09-08T08:22:34;6.90;83.30
81867;DHT22;71318;-36.550;-64.300;2023-09-08T08:25:00;7.00;82.30
81867;DHT22;71318;-36.550;-64.300;2023-09-08T08:27:27;7.10;82.20
81867;DHT22;71318;-36.550;-64.300;2023-09-08T08:29:53;7.00;82.30
81867;DHT22;71318;-36.550;-64.300;2023-09-08T08:32:19;6.90;82.30
81867;DHT22;71318;-36.550;-64.300;2023-09-08T08:34:46;6.80;83.50
81867;DHT22;71318;-36.550;-64.300;2023-09-08T08:37:12;6.70;84.40
81867;DHT22;71318;-36.550;-64.300;2023-09-08T08:39:38;6.60;84.50
81867;DHT22;71318;-36.550;-64.300;2023-09-08T08:42:08;6.70;84.00
81867;DHT22;71318;-36.550;-64.300;2023-09-08T08:44:35;6.70;83.80
81867;DHT22;71318;-36.550;-64.300;2023-09-08T08:47:03;6.70;84.00
81867;DHT22;71318;-36.550;-64.300;2023-09-08T08:49:32;6.70;83.50
81867;DHT22;71318;-36.550;-64.300;2023-09-08T08:51:59;6.70;83.40
81867;DHT22;71318;-36.550;-64.300;2023-09-08T08:54:39;6.70;83.50
81867;DHT22;71318;-36.550;-64.300;2023-09-08T08:57:06;6.80;83.20
81867;DHT22;71318;-36.550;-64.300;2023-09-08T08:59:32;6.70;83.10
81867;DHT22;71318;-36.550;-64.300;2023-09-08T09:01:59;6.50;83.80
81867;DHT22;71318;-36.550;-64.300;2023-09-08T09:04:26;6.40;84.50
81867;DHT22;71318;-36.550;-64.300;2023-09-08T09:06:53;6.20;85.20
81867;DHT22;71318;-36.550;-64.300;2023-09-08T09:09:19;6.20;85.20
81867;DHT22;71318;-36.550;-64.300;2023-09-08T09:11:46;6.30;84.50
81867;DHT22;71318;-36.550;-64.300;2023-09-08T09:14:13;6.30;84.60
81867;DHT22;71318;-36.550;-64.300;2023-09-08T09:16:42;6.40;84.50
81867;DHT22;71318;-36.550;-64.300;2023-09-08T09:19:10;6.20;84.80
81867;DHT22;71318;-36.550;-64.300;2023-09-08T09:24:28;5.90;86.20
81867;DHT22;71318;-36.550;-64.300;2023-09-08T09:26:55;6.00;86.30
81867;DHT22;71318;-36.550;-64.300;2023-09-08T09:29:21;5.90;86.20
81867;DHT22;71318;-36.550;-64.300;2023-09-08T09:31:54;5.80;86.40
81867;DHT22;71318;-36.550;-64.300;2023-09-08T09:34:21;5.70;86.40
81867;DHT22;71318;-36.550;-64.300;2023-09-08T09:36:48;5.80;86.20
81867;DHT22;71318;-36.550;-64.300;2023-09-08T09:39:18;5.80;85.80
81867;DHT22;71318;-36.550;-64.300;2023-09-08T09:41:46;5.70;85.80
81867;DHT22;71318;-36.550;-64.300;2023-09-08T09:44:12;5.70;85.70
81867;DHT22;71318;-36.550;-64.300;2023-09-08T09:46:39;6.00;84.70
81867;DHT22;71318;-36.550;-64.300;2023-09-08T09:49:10;6.10;83.90
81867;DHT22;71318;-36.550;-64.300;2023-09-08T09:51:40;6.30;82.80
81867;DHT22;71318;-36.550;-64.300;2023-09-08T09:54:07;6.20;82.90
81867;DHT22;71318;-36.550;-64.300;2023-09-08T09:56:34;6.20;83.30
81867;DHT22;71318;-36.550;-64.300;2023-09-08T09:59:01;6.10;83.60
81867;DHT22;71318;-36.550;-64.300;2023-09-08T10:01:32;6.00;83.60
81867;DHT22;71318;-36.550;-64.300;2023-09-08T10:03:59;6.10;82.70
81867;DHT22;71318;-36.550;-64.300;2023-09-08T10:06:26;6.20;82.10
81867;DHT22;71318;-36.550;-64.300;2023-09-08T10:08:55;5.90;83.10
81867;DHT22;71318;-36.550;-64.300;2023-09-08T10:11:22;6.00;82.70
81867;DHT22;71318;-36.550;-64.300;2023-09-08T10:13:51;6.00;82.40
81867;DHT22;71318;-36.550;-64.300;2023-09-08T10:16:19;6.00;82.00
81867;DHT22;71318;-36.550;-64.300;2023-09-08T10:18:46;5.90;82.30
81867;DHT22;71318;-36.550;-64.300;2023-09-08T10:21:13;6.00;81.80
81867;DHT22;71318;-36.550;-64.300;2023-09-08T10:23:44;5.80;82.50
81867;DHT22;71318;-36.550;-64.300;2023-09-08T10:26:12;5.90;82.20
81867;DHT22;71318;-36.550;-64.300;2023-09-08T10:28:42;6.10;81.60
81867;DHT22;71318;-36.550;-64.300;2023-09-08T10:31:09;6.20;80.90
81867;DHT22;71318;-36.550;-64.300;2023-09-08T10:33:35;6.20;81.00
81867;DHT22;71318;-36.550;-64.300;2023-09-08T10:36:02;6.10;81.80
81867;DHT22;71318;-36.550;-64.300;2023-09-08T10:38:34;6.00;82.00
81867;DHT22;71318;-36.550;-64.300;2023-09-08T10:44:00;6.10;81.90
81867;DHT22;71318;-36.550;-64.300;2023-09-08T10:46:27;6.10;81.50
81867;DHT22;71318;-36.550;-64.300;2023-09-08T10:48:54;6.00;82.00
81867;DHT22;71318;-36.550;-64.300;2023-09-08T10:51:21;6.10;82.40
81867;DHT22;71318;-36.550;-64.300;2023-09-08T10:53:48;6.00;83.40
81867;DHT22;71318;-36.550;-64.300;2023-09-08T10:56:18;6.10;83.00
81867;DHT22;71318;-36.550;-64.300;2023-09-08T10:58:48;6.20;82.90
81867;DHT22;71318;-36.550;-64.300;2023-09-08T11:01:17;6.20;83.20
81867;DHT22;71318;-36.550;-64.300;2023-09-08T11:03:44;6.30;83.50
81867;DHT22;71318;-36.550;-64.300;2023-09-08T11:06:12;6.20;84.60
81867;DHT22;71318;-36.550;-64.300;2023-09-08T11:08:41;6.20;85.70
81867;DHT22;71318;-36.550;-64.300;2023-09-08T11:11:10;6.30;85.40
81867;DHT22;71318;-36.550;-64.300;2023-09-08T11:13:36;6.60;84.70
81867;DHT22;71318;-36.550;-64.300;2023-09-08T11:16:03;6.80;84.40
81867;DHT22;71318;-36.550;-64.300;2023-09-08T11:18:30;7.00;84.10
81867;DHT22;71318;-36.550;-64.300;2023-09-08T11:20:56;7.10;83.70
81867;DHT22;71318;-36.550;-64.300;2023-09-08T11:23:23;7.20;84.10
81867;DHT22;71318;-36.550;-64.300;2023-09-08T11:25:50;7.20;83.70
81867;DHT22;71318;-36.550;-64.300;2023-09-08T11:28:19;7.40;83.10
81867;DHT22;71318;-36.550;-64.300;2023-09-08T11:30:47;7.40;82.80
81867;DHT22;71318;-36.550;-64.300;2023-09-08T11:33:20;7.60;81.80
81867;DHT22;71318;-36.550;-64.300;2023-09-08T11:35:51;7.60;82.40
81867;DHT22;71318;-36.550;-64.300;2023-09-08T11:38:22;7.50;83.70
81867;DHT22;71318;-36.550;-64.300;2023-09-08T11:40:50;7.50;83.50
81867;DHT22;71318;-36.550;-64.300;2023-09-08T11:43:18;7.50;84.60
81867;DHT22;71318;-36.550;-64.300;2023-09-08T11:45:46;7.60;83.60
81867;DHT22;71318;-36.550;-64.300;2023-09-08T11:48:15;7.80;84.00
81867;DHT22;71318;-36.550;-64.300;2023-09-08T11:50:42;7.90;82.80
81867;DHT22;71318;-36.550;-64.300;2023-09-08T11:53:10;7.90;83.80
81867;DHT22;71318;-36.550;-64.300;2023-09-08T11:55:37;7.90;83.70
81867;DHT22;71318;-36.550;-64.300;2023-09-08T11:58:03;8.00;83.50
81867;DHT22;71318;-36.550;-64.300;2023-09-08T12:00:30;8.00;83.30
81867;DHT22;71318;-36.550;-64.300;2023-09-08T12:03:18;8.10;83.30
81867;DHT22;71318;-36.550;-64.300;2023-09-08T12:05:50;8.10;83.00
81867;DHT22;71318;-36.550;-64.300;2023-09-08T12:08:17;8.10;82.90
81867;DHT22;71318;-36.550;-64.300;2023-09-08T12:10:43;8.10;83.70
81867;DHT22;71318;-36.550;-64.300;2023-09-08T12:13:10;8.10;84.20
81867;DHT22;71318;-36.550;-64.300;2023-09-08T12:15:40;8.20;82.70
81867;DHT22;71318;-36.550;-64.300;2023-09-08T12:18:12;8.30;83.10
81867;DHT22;71318;-36.550;-64.300;2023-09-08T12:20:41;8.40;82.90
81867;DHT22;71318;-36.550;-64.300;2023-09-08T12:23:18;8.50;82.40
81867;DHT22;71318;-36.550;-64.300;2023-09-08T12:25:45;8.60;81.90
81867;DHT22;71318;-36.550;-64.300;2023-09-08T12:28:11;8.70;82.10
81867;DHT22;71318;-36.550;-64.300;2023-09-08T12:30:38;8.80;81.50
81867;DHT22;71318;-36.550;-64.300;2023-09-08T12:33:06;8.90;81.90
81867;DHT22;71318;-36.550;-64.300;2023-09-08T12:35:33;9.00;81.00
81867;DHT22;71318;-36.550;-64.300;2023-09-08T12:38:02;9.20;79.30
81867;DHT22;71318;-36.550;-64.300;2023-09-08T12:40:30;9.20;79.50
81867;DHT22;71318;-36.550;-64.300;2023-09-08T12:42:57;9.20;81.40
81867;DHT22;71318;-36.550;-64.300;2023-09-08T12:45:26;9.30;80.60
81867;DHT22;71318;-36.550;-64.300;2023-09-08T12:47:54;9.30;79.30
81867;DHT22;71318;-36.550;-64.300;2023-09-08T12:50:24;9.30;80.20
81867;DHT22;71318;-36.550;-64.300;2023-09-08T12:52:51;9.30;78.40
81867;DHT22;71318;-36.550;-64.300;2023-09-08T12:55:17;9.40;79.00
81867;DHT22;71318;-36.550;-64.300;2023-09-08T12:57:44;9.50;80.10
81867;DHT22;71318;-36.550;-64.300;2023-09-08T13:00:10;9.50;78.30
81867;DHT22;71318;-36.550;-64.300;2023-09-08T13:02:37;9.60;79.40
81867;DHT22;71318;-36.550;-64.300;2023-09-08T13:05:03;9.70;78.60
81867;DHT22;71318;-36.550;-64.300;2023-09-08T13:07:30;9.80;78.30
81867;DHT22;71318;-36.550;-64.300;2023-09-08T13:09:56;9.70;79.00
81867;DHT22;71318;-36.550;-64.300;2023-09-08T13:12:25;9.70;77.80
81867;DHT22;71318;-36.550;-64.300;2023-09-08T13:14:51;9.60;78.30
81867;DHT22;71318;-36.550;-64.300;2023-09-08T13:17:18;9.60;78.90
81867;DHT22;71318;-36.550;-64.300;2023-09-08T13:19:46;9.80;79.40
81867;DHT22;71318;-36.550;-64.300;2023-09-08T13:22:13;10.00;75.80
81867;DHT22;71318;-36.550;-64.300;2023-09-08T13:24:39;9.90;78.30
81867;DHT22;71318;-36.550;-64.300;2023-09-08T13:27:06;9.90;79.00
81867;DHT22;71318;-36.550;-64.300;2023-09-08T13:29:33;10.10;79.10
81867;DHT22;71318;-36.550;-64.300;2023-09-08T13:31:59;10.20;78.50
81867;DHT22;71318;-36.550;-64.300;2023-09-08T13:34:27;10.20;78.70
81867;DHT22;71318;-36.550;-64.300;2023-09-08T13:36:54;10.50;79.30
81867;DHT22;71318;-36.550;-64.300;2023-09-08T13:39:20;10.60;79.60
81867;DHT22;71318;-36.550;-64.300;2023-09-08T13:41:53;10.50;78.60
81867;DHT22;71318;-36.550;-64.300;2023-09-08T13:44:21;10.50;79.60
81867;DHT22;71318;-36.550;-64.300;2023-09-08T13:46:52;10.50;79.00
81867;DHT22;71318;-36.550;-64.300;2023-09-08T13:49:19;10.70;79.20
81867;DHT22;71318;-36.550;-64.300;2023-09-08T13:51:46;11.20;75.70
81867;DHT22;71318;-36.550;-64.300;2023-09-08T13:54:12;11.90;71.30
81867;DHT22;71318;-36.550;-64.300;2023-09-08T13:56:39;11.90;71.40
81867;DHT22;71318;-36.550;-64.300;2023-09-08T13:59:06;11.70;69.40
81867;DHT22;71318;-36.550;-64.300;2023-09-08T14:01:33;11.70;71.30
81867;DHT22;71318;-36.550;-64.300;2023-09-08T14:03:59;11.90;70.70
81867;DHT22;71318;-36.550;-64.300;2023-09-08T14:06:26;12.20;71.10
81867;DHT22;71318;-36.550;-64.300;2023-09-08T14:08:53;12.40;69.50
81867;DHT22;71318;-36.550;-64.300;2023-09-08T14:11:20;12.40;69.00
81867;DHT22;71318;-36.550;-64.300;2023-09-08T14:13:47;12.40;69.60
81867;DHT22;71318;-36.550;-64.300;2023-09-08T14:16:16;12.60;69.80
81867;DHT22;71318;-36.550;-64.300;2023-09-08T14:18:45;12.60;66.60
81867;DHT22;71318;-36.550;-64.300;2023-09-08T14:21:12;12.70;67.00
81867;DHT22;71318;-36.550;-64.300;2023-09-08T14:23:38;12.70;66.40
81867;DHT22;71318;-36.550;-64.300;2023-09-08T14:26:06;12.70;65.20
81867;DHT22;71318;-36.550;-64.300;2023-09-08T14:28:34;12.70;64.40
81867;DHT22;71318;-36.550;-64.300;2023-09-08T14:31:00;12.80;64.40
81867;DHT22;71318;-36.550;-64.300;2023-09-08T14:33:26;12.80;64.00
81867;DHT22;71318;-36.550;-64.300;2023-09-08T14:35:53;12.80;65.90
81867;DHT22;71318;-36.550;-64.300;2023-09-08T14:38:23;13.00;65.20
81867;DHT22;71318;-36.550;-64.300;2023-09-08T14:40:59;13.10;64.20
81867;DHT22;71318;-36.550;-64.300;2023-09-08T14:43:26;13.20;61.30
81867;DHT22;71318;-36.550;-64.300;2023-09-08T14:45:54;13.40;61.20
81867;DHT22;71318;-36.550;-64.300;2023-09-08T14:48:23;13.50;58.70
81867;DHT22;71318;-36.550;-64.300;2023-09-08T14:50:50;13.60;57.50
81867;DHT22;71318;-36.550;-64.300;2023-09-08T14:53:16;13.70;58.10
81867;DHT22;71318;-36.550;-64.300;2023-09-08T14:55:43;13.90;56.10
81867;DHT22;71318;-36.550;-64.300;2023-09-08T14:58:14;14.10;56.30
81867;DHT22;71318;-36.550;-64.300;2023-09-08T15:02:35;14.20;54.20
81867;DHT22;71318;-36.550;-64.300;2023-09-08T15:05:02;14.20;53.00
81867;DHT22;71318;-36.550;-64.300;2023-09-08T15:07:28;14.30;53.10
81867;DHT22;71318;-36.550;-64.300;2023-09-08T15:09:54;14.60;55.50
81867;DHT22;71318;-36.550;-64.300;2023-09-08T15:12:21;14.70;53.20